Time;durP1;ratioP1;P1;durP2;ratioP2;P2;SDS_P1;SDS_P2;PMS_P1;PMS_P2;Temp;Humidity;BMP_temperature;BMP_pressure;BME280_temperature;BME280_humidity;BME280_pressure;Samples;Min_cycle;Max_cycle;Signal;HPM_P1;HPM_P2
2021/08/18 00:02:03;;;;;;;6.25;2.05;;;16.70;99.90;;;;;;4971485;28;20656;-83
2021/08/18 00:04:30;;;;;;;5.57;1.92;;;16.70;99.90;;;;;;4976651;28;20732;-83
2021/08/18 00:06:56;;;;;;;8.00;2.60;;;16.70;99.90;;;;;;4972418;28;20201;-83
2021/08/18 00:09:25;;;;;;;4.72;2.22;;;16.70;99.90;;;;;;4976995;28;20197;-83
2021/08/18 00:11:51;;;;;;;5.35;2.38;;;16.70;99.90;;;;;;4978396;28;20213;-83
2021/08/18 00:14:18;;;;;;;7.68;2.50;;;16.70;99.90;;;;;;4974221;28;20224;-83
2021/08/18 00:16:46;;;;;;;5.57;2.42;;;16.70;99.90;;;;;;4970898;28;20208;-83
2021/08/18 00:19:13;;;;;;;5.53;2.30;;;16.80;99.90;;;;;;4970714;28;20204;-83
2021/08/18 00:21:39;;;;;;;8.35;3.03;;;16.70;99.90;;;;;;4981264;28;20223;-82
2021/08/18 00:24:06;;;;;;;7.78;2.70;;;16.70;99.90;;;;;;4990046;28;20584;-81
2021/08/18 00:26:35;;;;;;;5.43;2.60;;;16.70;99.90;;;;;;4991243;28;20379;-83
2021/08/18 00:29:03;;;;;;;4.97;2.50;;;16.70;99.90;;;;;;4991888;28;20196;-82
2021/08/18 00:31:30;;;;;;;3.70;2.60;;;16.70;99.90;;;;;;4989392;28;20200;-82
2021/08/18 00:33:56;;;;;;;4.35;2.72;;;16.70;99.90;;;;;;4971916;28;20217;-84
2021/08/18 00:36:23;;;;;;;4.93;2.30;;;16.70;99.90;;;;;;4972281;28;20193;-82
2021/08/18 00:38:50;;;;;;;4.95;2.85;;;16.70;99.90;;;;;;4988578;28;20199;-83
2021/08/18 00:41:17;;;;;;;7.57;3.33;;;16.70;99.90;;;;;;4981513;28;20238;-83
2021/08/18 00:43:45;;;;;;;5.38;3.03;;;16.70;99.90;;;;;;4972641;28;20239;-84
2021/08/18 00:46:12;;;;;;;6.65;3.53;;;16.70;99.90;;;;;;4989600;28;20215;-81
2021/08/18 00:48:38;;;;;;;6.50;3.03;;;16.70;99.90;;;;;;4990854;28;20208;-84
2021/08/18 00:51:05;;;;;;;5.05;2.95;;;16.70;99.90;;;;;;4990286;28;20698;-84
2021/08/18 00:53:33;;;;;;;6.32;3.90;;;16.60;99.90;;;;;;4972776;28;20730;-84
2021/08/18 00:56:00;;;;;;;4.60;2.90;;;16.60;99.90;;;;;;4970503;28;20507;-85
2021/08/18 00:58:28;;;;;;;6.00;3.20;;;16.60;99.90;;;;;;4976549;28;20218;-84
2021/08/18 01:00:58;;;;;;;7.80;3.60;;;16.70;99.90;;;;;;4989509;28;20204;-79
2021/08/18 01:03:25;;;;;;;8.70;3.00;;;16.60;99.90;;;;;;4977618;28;20208;-83
2021/08/18 01:05:52;;;;;;;8.25;3.80;;;16.60;99.90;;;;;;4970573;28;20227;-82
2021/08/18 01:08:18;;;;;;;6.87;3.47;;;16.60;99.90;;;;;;4969785;28;20212;-82
2021/08/18 01:10:46;;;;;;;6.07;3.50;;;16.60;99.90;;;;;;4969399;28;20204;-80
2021/08/18 01:13:13;;;;;;;5.93;3.20;;;16.60;99.90;;;;;;4971493;28;20601;-84
2021/08/18 01:15:39;;;;;;;6.75;3.10;;;16.60;99.90;;;;;;4971153;28;20582;-84
2021/08/18 01:18:08;;;;;;;5.43;3.10;;;16.50;99.90;;;;;;4954443;28;20235;-84
2021/08/18 01:20:37;;;;;;;5.45;3.33;;;16.60;99.90;;;;;;4971246;28;20616;-86
2021/08/18 01:23:06;;;;;;;7.35;3.13;;;16.60;99.90;;;;;;4972235;28;20212;-84
2021/08/18 01:25:34;;;;;;;6.18;3.20;;;16.60;99.90;;;;;;4971729;28;20287;-84
2021/08/18 01:28:02;;;;;;;7.63;3.10;;;16.60;99.90;;;;;;4982604;28;20185;-85
2021/08/18 01:30:32;;;;;;;7.23;3.23;;;16.60;99.90;;;;;;4979204;28;20593;-84
2021/08/18 01:33:00;;;;;;;4.40;3.00;;;16.60;99.90;;;;;;4976435;28;20227;-82
2021/08/18 01:35:29;;;;;;;7.32;3.50;;;16.60;99.90;;;;;;4993127;28;20220;-82
2021/08/18 01:37:57;;;;;;;5.65;3.25;;;16.60;99.90;;;;;;4991043;28;20590;-85
2021/08/18 01:40:25;;;;;;;6.60;3.17;;;16.70;99.90;;;;;;4980760;28;20736;-85
2021/08/18 01:42:53;;;;;;;5.10;2.93;;;16.60;99.90;;;;;;4970778;28;20531;-84
2021/08/18 01:45:22;;;;;;;7.40;3.03;;;16.60;99.90;;;;;;4971552;28;20204;-82
2021/08/18 01:47:51;;;;;;;4.97;2.42;;;16.60;99.90;;;;;;4984340;28;20278;-83
2021/08/18 01:50:18;;;;;;;2.80;2.40;;;16.60;99.90;;;;;;4987854;28;20493;-83
2021/08/18 01:52:45;;;;;;;6.25;2.47;;;16.60;99.90;;;;;;4968966;28;20535;-82
2021/08/18 01:55:12;;;;;;;3.83;2.37;;;16.70;99.90;;;;;;4968638;28;20224;-82
2021/08/18 01:57:40;;;;;;;3.73;2.60;;;16.60;99.90;;;;;;4983560;28;20215;-83
2021/08/18 02:00:09;;;;;;;3.90;2.57;;;16.60;99.90;;;;;;4988790;28;20204;-81
2021/08/18 02:02:36;;;;;;;4.53;2.33;;;16.60;99.90;;;;;;4987106;28;20204;-84
2021/08/18 02:05:06;;;;;;;3.30;1.93;;;16.60;99.90;;;;;;4988873;28;20210;-83
2021/08/18 02:07:33;;;;;;;3.73;2.37;;;16.70;99.90;;;;;;4988096;28;20211;-81
2021/08/18 02:10:00;;;;;;;4.40;2.13;;;16.70;99.90;;;;;;4968637;28;20262;-84
2021/08/18 02:12:27;;;;;;;6.05;3.00;;;16.60;99.90;;;;;;4970066;28;20247;-80
2021/08/18 02:14:54;;;;;;;6.43;2.63;;;16.60;99.90;;;;;;4973015;28;20255;-81
2021/08/18 02:17:21;;;;;;;6.40;2.17;;;16.50;99.90;;;;;;4972567;28;20196;-80
2021/08/18 02:19:48;;;;;;;5.03;2.17;;;16.40;99.90;;;;;;4972572;28;20223;-82
2021/08/18 02:22:16;;;;;;;4.77;2.80;;;16.40;99.90;;;;;;4973076;28;20426;-81
2021/08/18 02:24:43;;;;;;;5.45;2.08;;;16.40;99.90;;;;;;4972902;28;20860;-81
2021/08/18 02:27:10;;;;;;;3.20;2.60;;;16.40;99.90;;;;;;4973046;28;20228;-82
2021/08/18 02:29:37;;;;;;;4.85;2.30;;;16.30;99.90;;;;;;4973710;28;20211;-83
2021/08/18 02:32:04;;;;;;;6.60;2.55;;;16.30;99.90;;;;;;4973130;28;20204;-83
2021/08/18 02:34:31;;;;;;;2.50;2.30;;;16.30;99.90;;;;;;4972544;28;20221;-84
2021/08/18 02:36:58;;;;;;;4.13;2.88;;;16.30;99.90;;;;;;4971222;28;20204;-82
2021/08/18 02:39:26;;;;;;;7.28;3.25;;;16.30;99.90;;;;;;4973508;28;20248;-82
2021/08/18 02:41:52;;;;;;;7.30;3.42;;;16.30;99.90;;;;;;4973911;28;20208;-81
2021/08/18 02:44:19;;;;;;;5.82;2.72;;;16.30;99.90;;;;;;4974535;28;20212;-82
2021/08/18 02:46:46;;;;;;;5.50;2.90;;;16.30;99.90;;;;;;4992512;28;20215;-82
2021/08/18 02:49:13;;;;;;;6.90;2.70;;;16.40;99.90;;;;;;4992972;28;20199;-83
2021/08/18 02:51:39;;;;;;;4.35;2.33;;;16.40;99.90;;;;;;4992743;28;20215;-83
2021/08/18 02:54:06;;;;;;;4.37;2.33;;;16.40;99.90;;;;;;4994351;28;20216;-83
2021/08/18 02:56:34;;;;;;;1.90;1.77;;;16.40;99.90;;;;;;4990580;28;20201;-82
2021/08/18 02:59:01;;;;;;;5.00;2.17;;;16.50;99.90;;;;;;4974067;28;20204;-84
2021/08/18 03:01:28;;;;;;;4.30;2.30;;;16.50;99.90;;;;;;4973992;28;20215;-83
2021/08/18 03:03:55;;;;;;;3.07;2.63;;;16.50;99.90;;;;;;4973987;28;20215;-85
2021/08/18 03:06:22;;;;;;;3.77;2.50;;;16.50;99.90;;;;;;4973497;28;20209;-81
2021/08/18 03:08:48;;;;;;;4.50;2.25;;;16.50;99.90;;;;;;4973514;28;20212;-85
2021/08/18 03:11:15;;;;;;;3.70;2.33;;;16.50;99.90;;;;;;4973798;28;20196;-84
2021/08/18 03:13:43;;;;;;;5.53;2.38;;;16.60;99.90;;;;;;4974510;28;20211;-87
2021/08/18 03:16:10;;;;;;;3.95;1.95;;;16.60;99.90;;;;;;4973625;28;20208;-85
2021/08/18 03:18:37;;;;;;;3.33;2.00;;;16.70;99.90;;;;;;4973892;28;20220;-85
2021/08/18 03:21:04;;;;;;;2.43;2.20;;;16.80;99.90;;;;;;4972742;28;20211;-82
2021/08/18 03:23:31;;;;;;;6.10;2.28;;;16.70;99.90;;;;;;4973574;28;20201;-82
2021/08/18 03:25:57;;;;;;;5.20;2.20;;;16.70;99.90;;;;;;4972949;28;20216;-84
2021/08/18 03:28:24;;;;;;;6.65;2.60;;;16.60;99.90;;;;;;4974203;28;20205;-84
2021/08/18 03:30:52;;;;;;;7.13;2.72;;;16.70;99.90;;;;;;4973668;28;20200;-83
2021/08/18 03:33:19;;;;;;;5.97;2.65;;;16.70;99.90;;;;;;4978520;28;20215;-83
2021/08/18 03:35:46;;;;;;;4.40;2.45;;;16.70;99.90;;;;;;4993261;28;20750;-84
2021/08/18 03:38:13;;;;;;;4.78;2.40;;;16.70;99.90;;;;;;4993195;28;20203;-84
2021/08/18 03:40:40;;;;;;;6.78;2.50;;;16.70;99.90;;;;;;4983506;28;20236;-84
2021/08/18 03:43:06;;;;;;;4.75;2.28;;;16.60;99.90;;;;;;4970973;28;20855;-83
2021/08/18 03:45:33;;;;;;;3.22;2.50;;;16.60;99.90;;;;;;4972445;28;20208;-84
2021/08/18 03:48:01;;;;;;;9.70;2.70;;;16.60;99.90;;;;;;4973578;28;20216;-84
2021/08/18 03:50:28;;;;;;;7.80;2.80;;;16.70;99.90;;;;;;4974079;28;20203;-85
2021/08/18 03:52:55;;;;;;;6.15;2.63;;;16.70;99.90;;;;;;4973675;28;20597;-85
2021/08/18 03:55:22;;;;;;;5.57;2.85;;;16.80;99.90;;;;;;4973090;28;20301;-85
2021/08/18 03:57:48;;;;;;;5.47;2.33;;;16.80;99.90;;;;;;4973283;28;20219;-83
2021/08/18 04:00:16;;;;;;;4.00;2.40;;;16.80;99.90;;;;;;4973966;28;20211;-85
2021/08/18 04:02:43;;;;;;;3.22;2.38;;;16.80;99.90;;;;;;4972781;28;20209;-84
2021/08/18 04:05:12;;;;;;;3.30;2.03;;;16.80;99.90;;;;;;4993516;28;20490;-84
2021/08/18 04:07:40;;;;;;;6.55;2.70;;;16.70;99.90;;;;;;4993441;28;20200;-84
2021/08/18 04:10:08;;;;;;;3.28;2.10;;;16.70;99.90;;;;;;4993711;28;20302;-83
2021/08/18 04:12:48;;;;;;;6.27;2.30;;;16.70;99.90;;;;;;4994834;28;20204;-84
2021/08/18 04:15:15;;;;;;;4.28;2.65;;;16.70;99.90;;;;;;4974626;28;20552;-84
2021/08/18 04:17:42;;;;;;;4.50;2.30;;;16.70;99.90;;;;;;4974446;28;20216;-83
2021/08/18 04:20:11;;;;;;;5.40;2.25;;;16.70;99.90;;;;;;4989234;28;20219;-85
2021/08/18 04:22:40;;;;;;;4.68;2.28;;;16.70;99.90;;;;;;4989776;28;20207;-85
2021/08/18 04:25:09;;;;;;;3.45;2.45;;;16.70;99.90;;;;;;4989585;28;20755;-84
2021/08/18 04:27:35;;;;;;;5.82;2.38;;;16.60;99.90;;;;;;4990190;28;20200;-84
2021/08/18 04:30:02;;;;;;;2.63;2.22;;;16.70;99.90;;;;;;4974802;28;20204;-83
2021/08/18 04:32:29;;;;;;;2.55;2.30;;;16.70;99.90;;;;;;4970584;28;20211;-84
2021/08/18 04:34:56;;;;;;;3.35;2.20;;;16.70;99.90;;;;;;4969668;28;20248;-84
2021/08/18 04:37:24;;;;;;;4.50;2.30;;;16.80;99.90;;;;;;4969574;28;20204;-84
2021/08/18 04:39:51;;;;;;;4.20;2.63;;;16.70;99.90;;;;;;4970448;28;20255;-84
2021/08/18 04:42:18;;;;;;;4.30;2.72;;;16.70;99.90;;;;;;4971859;28;20215;-85
2021/08/18 04:44:45;;;;;;;4.28;2.50;;;16.70;99.90;;;;;;4970560;28;20216;-84
2021/08/18 04:47:11;;;;;;;5.78;2.78;;;16.70;99.90;;;;;;4970970;28;20205;-84
2021/08/18 04:49:38;;;;;;;11.00;2.90;;;16.70;99.90;;;;;;4970019;28;20209;-85
2021/08/18 04:52:06;;;;;;;4.67;2.80;;;16.70;99.90;;;;;;4969839;28;20211;-84
2021/08/18 04:54:34;;;;;;;3.30;2.40;;;16.70;99.90;;;;;;4971244;28;20231;-84
2021/08/18 04:57:01;;;;;;;4.75;2.80;;;16.70;99.90;;;;;;4970614;28;20656;-84
2021/08/18 04:59:28;;;;;;;3.78;2.53;;;16.70;99.90;;;;;;4971156;28;20215;-86
2021/08/18 05:01:55;;;;;;;4.53;2.53;;;16.70;99.90;;;;;;4972278;28;20215;-84
2021/08/18 05:04:22;;;;;;;4.10;2.67;;;16.80;99.90;;;;;;4972233;28;20207;-84
2021/08/18 05:06:48;;;;;;;2.63;2.35;;;16.80;99.90;;;;;;4971484;28;20228;-82
2021/08/18 05:09:15;;;;;;;3.63;2.67;;;16.90;99.90;;;;;;4971787;28;20215;-83
2021/08/18 05:11:43;;;;;;;4.70;2.72;;;16.90;99.90;;;;;;4990661;28;20210;-83
2021/08/18 05:14:10;;;;;;;3.28;2.72;;;17.00;99.90;;;;;;4991521;28;20196;-83
2021/08/18 05:16:37;;;;;;;5.55;3.00;;;17.00;99.90;;;;;;4991847;28;20227;-84
2021/08/18 05:19:04;;;;;;;2.60;2.40;;;16.90;99.90;;;;;;4985636;28;20213;-83
2021/08/18 05:21:31;;;;;;;4.13;2.60;;;16.90;99.90;;;;;;4972486;28;20209;-85
2021/08/18 05:23:57;;;;;;;6.13;2.60;;;16.90;99.90;;;;;;4972014;28;20605;-84
2021/08/18 05:26:24;;;;;;;5.40;3.03;;;16.90;99.90;;;;;;4978633;28;20563;-83
2021/08/18 05:28:53;;;;;;;3.75;2.97;;;16.90;99.90;;;;;;4985920;28;20192;-83
2021/08/18 05:31:19;;;;;;;5.43;2.28;;;17.00;99.90;;;;;;4981637;28;20219;-83
2021/08/18 05:33:46;;;;;;;3.50;2.53;;;17.10;99.90;;;;;;4977746;28;20212;-84
2021/08/18 05:36:13;;;;;;;4.68;2.92;;;17.10;99.90;;;;;;4984046;28;20228;-84
2021/08/18 05:38:40;;;;;;;3.78;2.05;;;17.10;99.90;;;;;;4976863;28;20216;-85
2021/08/18 05:41:06;;;;;;;4.70;2.27;;;17.20;99.90;;;;;;4972368;28;20256;-84
2021/08/18 05:43:34;;;;;;;5.53;2.20;;;17.20;99.90;;;;;;4972158;28;20833;-84
2021/08/18 05:46:02;;;;;;;6.53;2.42;;;17.20;99.90;;;;;;4972859;28;20212;-86
2021/08/18 05:48:29;;;;;;;4.63;2.20;;;17.20;99.90;;;;;;4971759;28;20864;-85
2021/08/18 05:50:56;;;;;;;3.60;2.20;;;17.30;99.90;;;;;;4991762;28;20219;-84
2021/08/18 05:53:23;;;;;;;5.72;2.30;;;17.30;99.90;;;;;;4991919;28;20219;-87
2021/08/18 05:55:50;;;;;;;4.93;1.95;;;17.30;99.90;;;;;;4991009;28;20212;-86
2021/08/18 05:58:17;;;;;;;3.42;1.70;;;17.30;99.90;;;;;;4991573;28;20200;-84
2021/08/18 06:00:44;;;;;;;2.08;1.88;;;17.40;99.90;;;;;;4989635;28;20203;-84
2021/08/18 06:03:13;;;;;;;4.22;1.80;;;17.30;99.90;;;;;;4989957;28;20197;-83
2021/08/18 06:05:39;;;;;;;4.63;2.38;;;17.30;99.90;;;;;;4990252;28;20559;-86
2021/08/18 06:08:07;;;;;;;3.40;2.08;;;17.30;99.90;;;;;;4990253;28;20281;-85
2021/08/18 06:10:34;;;;;;;2.78;1.80;;;17.40;99.90;;;;;;4988473;28;20204;-84
2021/08/18 06:13:02;;;;;;;5.20;2.13;;;17.40;99.90;;;;;;4970932;28;20215;-86
2021/08/18 06:15:28;;;;;;;5.90;2.08;;;17.50;99.90;;;;;;4970838;28;20319;-84
2021/08/18 06:17:55;;;;;;;4.53;2.33;;;17.50;99.90;;;;;;4971168;28;20208;-83
2021/08/18 06:20:24;;;;;;;3.08;2.45;;;17.60;99.90;;;;;;4971630;28;20209;-83
2021/08/18 06:22:52;;;;;;;5.10;2.60;;;17.50;99.90;;;;;;4972253;28;20208;-85
2021/08/18 06:25:19;;;;;;;4.80;2.72;;;17.50;99.90;;;;;;4971811;28;20235;-85
2021/08/18 06:27:46;;;;;;;4.68;3.05;;;17.50;99.90;;;;;;4971326;28;20204;-88
2021/08/18 06:30:13;;;;;;;5.10;3.08;;;17.60;99.90;;;;;;4971354;28;20204;-83
2021/08/18 06:32:40;;;;;;;6.15;3.05;;;17.60;99.90;;;;;;4971226;28;20887;-86
2021/08/18 06:35:07;;;;;;;4.85;3.22;;;17.60;99.90;;;;;;4971280;28;20225;-84
2021/08/18 06:37:36;;;;;;;6.32;3.33;;;17.60;99.90;;;;;;4971068;28;20208;-84
2021/08/18 06:40:03;;;;;;;4.90;3.42;;;17.70;99.90;;;;;;4970271;28;20240;-84
2021/08/18 06:42:30;;;;;;;7.65;4.28;;;17.70;99.90;;;;;;4970978;28;20200;-83
2021/08/18 06:44:57;;;;;;;6.18;3.53;;;17.80;99.90;;;;;;4969693;28;20235;-83
2021/08/18 06:47:24;;;;;;;3.92;3.50;;;17.90;99.90;;;;;;4970900;28;20213;-82
2021/08/18 06:49:50;;;;;;;6.30;3.63;;;17.90;99.90;;;;;;4981477;28;20208;-87
2021/08/18 06:52:17;;;;;;;7.82;3.90;;;18.00;99.90;;;;;;4990004;28;20212;-85
2021/08/18 06:54:45;;;;;;;6.60;4.00;;;18.00;99.90;;;;;;4989771;28;20199;-85
2021/08/18 06:57:12;;;;;;;7.30;3.90;;;18.10;99.90;;;;;;4987535;28;20227;-82
2021/08/18 06:59:39;;;;;;;4.53;3.88;;;18.10;99.90;;;;;;4992929;28;20196;-84
2021/08/18 07:02:06;;;;;;;5.60;4.18;;;18.20;99.90;;;;;;4993703;28;20265;-84
2021/08/18 07:04:32;;;;;;;4.28;3.45;;;18.20;99.90;;;;;;4994220;28;20196;-87
2021/08/18 07:06:59;;;;;;;6.65;3.53;;;18.30;99.90;;;;;;4977001;28;20212;-86
2021/08/18 07:09:26;;;;;;;4.38;2.83;;;18.40;99.90;;;;;;4982961;28;20215;-85
2021/08/18 07:11:54;;;;;;;6.63;3.72;;;18.50;99.90;;;;;;4993487;28;20204;-84
2021/08/18 07:14:21;;;;;;;7.32;4.30;;;18.50;99.90;;;;;;4992499;28;20239;-84
2021/08/18 07:16:48;;;;;;;6.72;4.90;;;18.60;99.90;;;;;;4991438;28;20228;-86
2021/08/18 07:19:15;;;;;;;6.97;5.05;;;18.60;99.90;;;;;;4974543;28;20204;-84
2021/08/18 07:21:42;;;;;;;5.55;4.00;;;18.70;99.90;;;;;;4972234;28;20215;-83
2021/08/18 07:24:09;;;;;;;7.25;3.25;;;18.70;99.90;;;;;;4972965;28;20511;-81
2021/08/18 07:26:36;;;;;;;6.40;3.22;;;18.80;99.90;;;;;;4972072;28;20232;-81
2021/08/18 07:29:04;;;;;;;4.03;3.38;;;18.80;99.90;;;;;;4971629;28;20216;-81
2021/08/18 07:31:31;;;;;;;3.75;2.78;;;18.80;99.90;;;;;;4970855;28;20247;-82
2021/08/18 07:33:57;;;;;;;7.38;3.53;;;18.80;99.90;;;;;;4971309;28;20231;-85
2021/08/18 07:36:24;;;;;;;5.25;2.95;;;18.90;99.90;;;;;;4970878;28;20231;-82
2021/08/18 07:38:51;;;;;;;4.00;2.35;;;18.90;99.90;;;;;;4970747;28;20201;-83
2021/08/18 07:41:18;;;;;;;5.47;2.83;;;18.90;99.90;;;;;;4970784;28;20244;-82
2021/08/18 07:43:45;;;;;;;5.78;2.78;;;18.90;99.90;;;;;;4970949;28;20507;-82
2021/08/18 07:46:13;;;;;;;4.40;2.40;;;18.90;99.90;;;;;;4971255;28;20208;-81
2021/08/18 07:48:40;;;;;;;7.43;4.15;;;18.90;99.90;;;;;;4970723;28;20208;-82
2021/08/18 07:51:07;;;;;;;6.40;4.47;;;18.80;99.90;;;;;;4970853;28;20222;-81
2021/08/18 07:53:36;;;;;;;6.85;4.20;;;18.80;99.90;;;;;;4971168;28;20263;-82
2021/08/18 07:56:03;;;;;;;8.45;3.90;;;18.80;99.90;;;;;;4971824;28;20272;-82
2021/08/18 07:58:29;;;;;;;8.00;3.95;;;18.90;99.90;;;;;;4973173;28;20208;-84
2021/08/18 08:00:56;;;;;;;5.53;4.03;;;18.90;99.90;;;;;;4970991;28;20204;-80
2021/08/18 08:03:24;;;;;;;11.00;5.20;;;19.00;99.90;;;;;;4972300;28;20211;-87
2021/08/18 08:05:51;;;;;;;8.90;3.90;;;19.00;99.90;;;;;;4972163;28;20216;-85
2021/08/18 08:08:18;;;;;;;6.65;4.63;;;19.10;99.90;;;;;;4972090;28;20209;-82
2021/08/18 08:10:45;;;;;;;4.80;3.30;;;19.20;99.90;;;;;;4969903;28;20209;-82
2021/08/18 08:13:12;;;;;;;5.38;3.95;;;19.30;99.90;;;;;;4972090;28;20204;-84
2021/08/18 08:15:39;;;;;;;3.50;2.85;;;19.30;99.90;;;;;;4988646;28;20232;-84
2021/08/18 08:18:05;;;;;;;6.82;2.90;;;19.30;99.90;;;;;;4990772;28;20204;-86
2021/08/18 08:20:34;;;;;;;6.40;4.05;;;19.30;99.90;;;;;;4991073;28;20611;-82
2021/08/18 08:23:01;;;;;;;4.32;3.38;;;19.30;99.90;;;;;;4977473;28;20259;-86
2021/08/18 08:25:28;;;;;;;6.90;4.22;;;19.30;99.90;;;;;;4971363;28;20256;-88
2021/08/18 08:27:55;;;;;;;6.07;3.72;;;19.30;99.90;;;;;;4970866;28;20216;-83
2021/08/18 08:30:23;;;;;;;4.00;2.90;;;19.30;99.90;;;;;;4971388;28;20276;-80
2021/08/18 08:32:50;;;;;;;4.88;3.05;;;19.20;99.90;;;;;;4971203;28;20597;-87
2021/08/18 08:35:17;;;;;;;7.38;3.90;;;19.30;99.90;;;;;;4971204;28;20655;-83
2021/08/18 08:37:45;;;;;;;8.18;3.17;;;19.30;99.90;;;;;;4981386;28;20208;-84
2021/08/18 08:40:13;;;;;;;4.38;2.90;;;19.20;99.90;;;;;;4989973;28;20639;-84
2021/08/18 08:42:40;;;;;;;6.38;3.10;;;19.20;99.90;;;;;;4970865;28;20255;-82
2021/08/18 08:45:09;;;;;;;3.38;2.05;;;19.30;99.90;;;;;;4971652;28;20219;-87
2021/08/18 08:47:36;;;;;;;3.80;2.20;;;19.30;99.90;;;;;;4970763;28;20201;-89
2021/08/18 08:50:04;;;;;;;2.42;1.95;;;19.20;99.90;;;;;;4970099;28;20553;-81
2021/08/18 08:52:32;;;;;;;3.35;2.13;;;19.30;99.90;;;;;;4969271;28;20208;-78
2021/08/18 08:55:01;;;;;;;3.33;2.15;;;19.20;99.90;;;;;;4968589;28;20267;-84
2021/08/18 08:57:28;;;;;;;5.63;2.50;;;19.30;99.90;;;;;;4969449;28;20247;-83
2021/08/18 08:59:54;;;;;;;3.28;2.47;;;19.30;99.90;;;;;;4969999;28;20536;-84
2021/08/18 09:02:22;;;;;;;5.10;2.53;;;19.30;99.90;;;;;;4970291;28;20205;-85
2021/08/18 09:04:50;;;;;;;3.97;2.53;;;19.40;99.90;;;;;;4969764;28;20208;-80
2021/08/18 09:07:20;;;;;;;3.63;2.30;;;19.40;99.90;;;;;;4985640;28;20211;-80
2021/08/18 09:09:53;;;;;;;3.55;2.65;;;19.40;99.90;;;;;;4989449;28;20203;-86
2021/08/18 09:12:27;;;;;;;5.28;3.30;;;19.40;99.90;;;;;;4988909;28;20188;-85
2021/08/18 09:14:54;;;;;;;3.55;2.80;;;19.30;99.90;;;;;;4973962;28;20255;-80
2021/08/18 09:17:29;;;;;;;6.35;4.35;;;19.20;99.90;;;;;;4969158;28;20225;-79
2021/08/18 09:20:01;;;;;;;9.05;5.15;;;19.20;99.90;;;;;;4968880;28;20271;-83
2021/08/18 09:22:28;;;;;;;9.27;4.47;;;19.20;99.90;;;;;;4970966;28;20213;-83
2021/08/18 09:25:19;;;;;;;7.97;5.20;;;19.20;99.90;;;;;;4972940;28;20200;-82
2021/08/18 09:27:50;;;;;;;6.63;5.50;;;19.20;99.90;;;;;;4964552;28;20205;-83
2021/08/18 09:30:20;;;;;;;10.05;5.57;;;19.20;99.90;;;;;;4986914;28;20227;-83
2021/08/18 09:32:47;;;;;;;7.15;5.57;;;19.10;99.90;;;;;;4992631;28;20207;-85
2021/08/18 09:35:15;;;;;;;8.57;5.90;;;19.10;99.90;;;;;;4992942;28;20527;-79
2021/08/18 09:37:45;;;;;;;9.35;6.63;;;19.00;99.90;;;;;;4983404;28;20216;-87
2021/08/18 09:40:19;;;;;;;11.52;8.68;;;19.00;99.90;;;;;;4969759;28;20251;-82
2021/08/18 09:42:48;;;;;;;17.00;11.40;;;19.10;99.90;;;;;;4969475;28;20212;-86
2021/08/18 09:45:18;;;;;;;15.07;10.15;;;19.00;99.90;;;;;;4970342;28;20208;-87
2021/08/18 09:48:07;;;;;;;13.82;11.45;;;19.10;99.90;;;;;;4968736;28;20215;-84
2021/08/18 09:50:43;;;;;;;16.73;11.07;;;19.10;99.90;;;;;;4968182;28;20236;-81
2021/08/18 09:53:13;;;;;;;16.08;11.18;;;19.00;99.90;;;;;;4973198;28;20208;-82
2021/08/18 09:55:49;;;;;;;14.65;10.15;;;19.00;99.90;;;;;;4986915;28;20212;-82
2021/08/18 09:58:21;;;;;;;17.33;9.27;;;19.00;99.90;;;;;;4988133;28;20651;-80
2021/08/18 10:00:48;;;;;;;15.55;11.20;;;18.90;99.90;;;;;;4986712;28;20210;-82
2021/08/18 10:03:15;;;;;;;15.68;10.43;;;19.00;99.90;;;;;;4987262;28;20208;-81
2021/08/18 10:05:42;;;;;;;14.18;9.45;;;19.00;99.90;;;;;;4985873;28;20529;-81
2021/08/18 10:08:09;;;;;;;15.63;10.10;;;19.00;99.90;;;;;;4971811;28;20213;-82
2021/08/18 10:10:38;;;;;;;15.32;8.85;;;19.10;99.90;;;;;;4968123;28;20230;-82
2021/08/18 10:13:06;;;;;;;13.85;8.43;;;19.20;99.90;;;;;;4967541;28;20193;-80
2021/08/18 10:15:36;;;;;;;13.88;8.07;;;19.20;99.90;;;;;;4964910;28;20625;-82
2021/08/18 10:18:03;;;;;;;13.85;7.45;;;19.30;99.90;;;;;;4985714;28;20855;-79
2021/08/18 10:20:30;;;;;;;14.60;7.55;;;19.30;99.90;;;;;;4982898;28;20776;-81
2021/08/18 10:23:02;;;;;;;14.93;6.90;;;19.30;99.90;;;;;;4968714;28;20205;-79
2021/08/18 10:25:47;;;;;;;10.07;7.75;;;19.40;99.90;;;;;;4969401;28;20495;-80
2021/08/18 10:28:17;;;;;;;10.80;7.35;;;19.50;99.90;;;;;;4969330;28;20201;-83
2021/08/18 10:31:00;;;;;;;12.52;8.02;;;19.70;99.90;;;;;;4968731;28;20502;-80
2021/08/18 10:34:01;;;;;;;10.85;6.50;;;19.80;99.90;;;;;;4969365;28;20216;-82
2021/08/18 10:37:08;;;;;;;9.95;6.65;;;19.90;99.90;;;;;;4972474;28;20244;-82
2021/08/18 10:39:38;;;;;;;11.25;8.27;;;20.00;99.90;;;;;;4965299;28;20509;-80
2021/08/18 10:42:07;;;;;;;12.55;7.53;;;20.00;99.90;;;;;;4971432;28;20208;-81
2021/08/18 10:44:36;;;;;;;11.98;7.80;;;20.10;99.90;;;;;;4970164;28;20204;-82
2021/08/18 10:47:22;;;;;;;9.38;6.72;;;20.20;99.90;;;;;;4974093;28;20204;-80
2021/08/18 10:49:51;;;;;;;10.73;7.25;;;20.30;99.90;;;;;;4974700;28;20605;-84
2021/08/18 10:52:49;;;;;;;14.05;7.40;;;20.40;99.90;;;;;;4973579;28;20301;-81
2021/08/18 10:55:17;;;;;;;9.13;6.47;;;20.30;99.90;;;;;;4933426;29;20312;-79
2021/08/18 10:57:48;;;;;;;10.20;6.43;;;20.40;99.90;;;;;;4970378;28;20243;-88
2021/08/18 11:00:20;;;;;;;10.73;5.75;;;20.50;99.90;;;;;;4991472;28;20270;-84
2021/08/18 11:03:01;;;;;;;8.05;5.20;;;20.50;99.90;;;;;;4973125;28;20220;-84
2021/08/18 11:05:48;;;;;;;9.15;5.45;;;20.60;99.90;;;;;;4981447;28;20626;-80
2021/08/18 11:08:17;;;;;;;9.63;5.05;;;20.60;99.90;;;;;;4988898;28;20200;-82
2021/08/18 11:11:18;;;;;;;8.45;5.22;;;20.70;99.90;;;;;;4970546;28;20224;-82
2021/08/18 11:13:49;;;;;;;10.32;5.40;;;20.80;99.90;;;;;;4970957;28;20196;-81
2021/08/18 11:16:18;;;;;;;11.00;6.75;;;20.80;99.90;;;;;;4970134;28;20204;-82
2021/08/18 11:18:51;;;;;;;8.70;5.25;;;20.80;99.90;;;;;;4970113;28;20204;-78
2021/08/18 11:21:21;;;;;;;10.63;6.30;;;20.80;99.90;;;;;;4971393;28;20208;-82
2021/08/18 11:23:57;;;;;;;9.63;5.40;;;20.90;99.90;;;;;;4970350;28;20544;-80
2021/08/18 11:26:26;;;;;;;9.10;5.55;;;21.00;99.90;;;;;;4988370;28;20659;-81
2021/08/18 11:29:02;;;;;;;6.97;5.15;;;21.00;99.90;;;;;;4987042;28;20207;-86
2021/08/18 11:31:34;;;;;;;8.82;5.43;;;21.00;99.90;;;;;;4989004;28;20203;-80
2021/08/18 11:34:03;;;;;;;6.03;4.47;;;21.00;99.90;;;;;;4970298;28;20209;-82
2021/08/18 11:36:35;;;;;;;7.85;4.68;;;21.00;99.90;;;;;;4975040;28;20216;-86
2021/08/18 11:39:05;;;;;;;7.55;5.57;;;21.00;99.90;;;;;;4989444;28;20811;-86
2021/08/18 11:41:36;;;;;;;8.07;5.57;;;21.10;99.90;;;;;;4980436;28;20208;-81
2021/08/18 11:44:04;;;;;;;9.80;5.18;;;21.10;99.90;;;;;;4970525;28;20197;-82
2021/08/18 11:46:31;;;;;;;10.77;5.63;;;21.10;99.90;;;;;;4986601;28;20211;-84
2021/08/18 11:49:07;;;;;;;9.30;5.35;;;21.10;99.90;;;;;;4982409;28;20304;-81
2021/08/18 11:51:35;;;;;;;7.00;5.00;;;21.10;99.90;;;;;;4970808;28;20208;-82
2021/08/18 11:54:02;;;;;;;7.60;5.13;;;21.20;99.90;;;;;;4976031;28;20215;-79
2021/08/18 11:56:30;;;;;;;10.10;4.63;;;21.40;99.90;;;;;;4990350;28;20204;-87
2021/08/18 11:58:59;;;;;;;11.95;4.50;;;21.40;99.90;;;;;;4990367;28;20878;-80
2021/08/18 12:01:26;;;;;;;7.18;4.68;;;21.40;99.90;;;;;;4990305;28;20204;-79
2021/08/18 12:03:53;;;;;;;9.98;5.40;;;21.50;99.90;;;;;;4973816;28;20208;-83
2021/08/18 12:06:35;;;;;;;10.30;4.57;;;21.40;99.90;;;;;;4969989;28;20371;-81
2021/08/18 12:09:05;;;;;;;7.13;5.32;;;21.30;99.90;;;;;;4970426;28;20197;-85
2021/08/18 12:11:36;;;;;;;6.55;4.40;;;21.20;99.90;;;;;;4987096;28;20212;-80
2021/08/18 12:14:11;;;;;;;7.78;5.30;;;21.10;99.90;;;;;;4975729;28;20324;-79
2021/08/18 12:16:39;;;;;;;6.43;5.00;;;21.00;99.90;;;;;;4969847;28;20204;-81
2021/08/18 12:19:23;;;;;;;6.65;4.70;;;21.20;99.90;;;;;;4970026;28;20605;-80
2021/08/18 12:22:19;;;;;;;8.27;4.32;;;21.40;99.90;;;;;;4969195;28;20216;-81
2021/08/18 12:24:48;;;;;;;6.80;4.97;;;21.40;99.90;;;;;;4969521;28;20197;-85
2021/08/18 12:27:22;;;;;;;6.72;4.25;;;21.30;99.90;;;;;;4969320;28;20227;-82
2021/08/18 12:30:00;;;;;;;7.38;4.70;;;21.30;99.90;;;;;;4969284;28;20499;-83
2021/08/18 12:32:27;;;;;;;8.73;4.63;;;21.30;99.90;;;;;;4969509;28;20220;-80
2021/08/18 12:34:58;;;;;;;6.00;4.03;;;21.20;99.90;;;;;;4968185;28;20204;-82
2021/08/18 12:37:28;;;;;;;5.53;4.20;;;21.10;99.90;;;;;;4970002;28;20236;-78
2021/08/18 12:39:56;;;;;;;9.27;4.90;;;21.10;99.90;;;;;;4968545;28;20240;-80
2021/08/18 12:42:26;;;;;;;5.45;4.38;;;21.20;99.90;;;;;;4968819;28;20525;-79
2021/08/18 12:45:11;;;;;;;8.48;5.05;;;21.30;99.90;;;;;;4969437;28;20221;-81
2021/08/18 12:47:39;;;;;;;10.30;4.55;;;21.40;99.90;;;;;;4969828;28;20208;-81
2021/08/18 12:50:08;;;;;;;6.57;3.95;;;21.40;99.90;;;;;;4968466;28;20200;-80
2021/08/18 12:52:36;;;;;;;5.57;4.20;;;21.40;99.90;;;;;;4968983;28;20251;-86
2021/08/18 12:55:04;;;;;;;7.45;4.50;;;21.30;99.90;;;;;;4968483;28;20192;-79